createdAt,value
2023-03-28T00:02:27.266Z,3.65
2023-03-28T00:04:54.088Z,3.62
2023-03-28T00:07:21.830Z,3.59
2023-03-28T00:09:49.188Z,3.56
2023-03-28T00:12:16.105Z,3.54
2023-03-28T00:14:43.620Z,3.51
2023-03-28T00:17:10.629Z,3.50
2023-03-28T00:19:40.860Z,3.47
2023-03-28T00:22:08.648Z,3.46
2023-03-28T00:24:39.029Z,3.45
2023-03-28T00:27:07.273Z,3.43
2023-03-28T00:29:34.427Z,3.41
2023-03-28T00:32:01.237Z,3.39
2023-03-28T00:34:28.064Z,3.37
2023-03-28T00:36:55.319Z,3.35
2023-03-28T00:39:22.349Z,3.34
2023-03-28T00:41:49.482Z,3.34
2023-03-28T00:44:35.501Z,3.33
2023-03-28T00:47:02.597Z,3.32
2023-03-28T00:49:30.249Z,3.31
2023-03-28T00:51:58.328Z,3.30
2023-03-28T00:54:28.220Z,3.29
2023-03-28T00:56:57.646Z,3.29
2023-03-28T00:59:27.112Z,3.27
2023-03-28T01:01:55.604Z,3.24
2023-03-28T01:04:24.758Z,3.23
2023-03-28T01:06:54.986Z,3.21
2023-03-28T01:09:24.248Z,3.19
2023-03-28T01:11:53.923Z,3.18
2023-03-28T01:14:22.990Z,3.17
2023-03-28T01:16:52.744Z,3.16
2023-03-28T01:19:21.980Z,3.16
2023-03-28T01:21:57.760Z,3.17
2023-03-28T01:24:25.006Z,3.16
2023-03-28T01:27:15.777Z,3.14
2023-03-28T01:30:14.427Z,3.13
2023-03-28T01:33:46.262Z,3.11
2023-03-28T01:36:33.846Z,3.11
2023-03-28T01:39:11.519Z,3.12
2023-03-28T01:41:38.796Z,3.09
2023-03-28T01:44:24.362Z,3.06
2023-03-28T01:46:54.546Z,3.03
2023-03-28T01:50:03.438Z,3.02
2023-03-28T01:52:41.392Z,3.00
2023-03-28T01:55:21.207Z,2.99
2023-03-28T01:58:11.584Z,2.97
2023-03-28T02:00:49.751Z,2.96
2023-03-28T02:03:21.061Z,2.92
2023-03-28T02:06:14.541Z,2.89
2023-03-28T02:08:43.168Z,2.86
2023-03-28T02:11:35.735Z,2.82
2023-03-28T02:14:25.122Z,2.81
2023-03-28T02:17:39.214Z,2.77
2023-03-28T02:20:28.166Z,2.75
2023-03-28T02:23:11.123Z,2.74
2023-03-28T02:26:07.651Z,2.74
2023-03-28T02:29:14.361Z,2.74
2023-03-28T02:31:56.976Z,2.75
2023-03-28T02:34:25.168Z,2.73
2023-03-28T02:37:01.186Z,2.73
2023-03-28T02:39:37.812Z,2.73
2023-03-28T02:42:10.506Z,2.72
2023-03-28T02:44:49.715Z,2.73
2023-03-28T02:47:18.892Z,2.71
2023-03-28T02:49:52.465Z,2.71
2023-03-28T02:52:20.326Z,2.70
2023-03-28T02:55:03.690Z,2.68
2023-03-28T02:57:48.754Z,2.68
2023-03-28T03:00:18.734Z,2.67
2023-03-28T03:02:49.406Z,2.67
2023-03-28T03:05:16.517Z,2.68
2023-03-28T03:07:43.350Z,2.68
2023-03-28T03:10:12.118Z,2.70
2023-03-28T03:12:39.298Z,2.72
2023-03-28T03:15:07.488Z,2.73
2023-03-28T03:18:04.578Z,2.75
2023-03-28T03:20:33.795Z,2.77
2023-03-28T03:23:02.319Z,2.80
2023-03-28T03:25:32.007Z,2.83
2023-03-28T03:28:08.195Z,2.82
2023-03-28T03:30:35.586Z,2.82
2023-03-28T03:33:25.460Z,2.85
2023-03-28T03:36:12.970Z,2.87
2023-03-28T03:38:41.188Z,2.90
2023-03-28T03:41:12.646Z,2.94
2023-03-28T03:43:39.468Z,2.98
2023-03-28T03:46:06.538Z,3.03
2023-03-28T03:48:33.674Z,3.06
2023-03-28T03:51:01.811Z,3.15
2023-03-28T03:53:28.877Z,3.20
2023-03-28T03:56:07.106Z,3.28
2023-03-28T03:58:53.127Z,3.36
2023-03-28T04:01:25.997Z,3.45
2023-03-28T04:03:55.204Z,3.55
2023-03-28T04:06:29.744Z,3.63
2023-03-28T04:08:56.784Z,3.70
2023-03-28T04:11:46.579Z,3.79
2023-03-28T04:14:13.584Z,3.87
2023-03-28T04:16:41.686Z,3.93
2023-03-28T04:19:10.963Z,4.01
2023-03-28T04:21:41.738Z,4.09
2023-03-28T04:24:09.199Z,4.17
2023-03-28T04:26:46.035Z,4.24
2023-03-28T04:29:17.152Z,4.30
2023-03-28T04:31:59.578Z,4.37
2023-03-28T04:34:30.242Z,4.45
2023-03-28T04:37:15.433Z,4.55
2023-03-28T04:39:54.197Z,4.65
2023-03-28T04:42:30.174Z,4.73
2023-03-28T04:45:06.559Z,4.83
2023-03-28T04:47:34.721Z,4.91
2023-03-28T04:50:01.812Z,5.00
2023-03-28T04:52:33.175Z,5.07
2023-03-28T04:54:59.954Z,5.14
2023-03-28T04:57:26.950Z,5.22
2023-03-28T04:59:59.742Z,5.29
2023-03-28T05:02:45.690Z,5.36
2023-03-28T05:05:17.433Z,5.42
2023-03-28T05:07:45.282Z,5.48
2023-03-28T05:10:14.096Z,5.54
2023-03-28T05:12:41.423Z,5.60
2023-03-28T05:15:08.660Z,5.70
2023-03-28T05:17:52.648Z,5.81
2023-03-28T05:20:32.052Z,5.95
2023-03-28T05:23:06.300Z,6.07
2023-03-28T05:25:35.877Z,6.20
2023-03-28T05:28:03.630Z,6.31
2023-03-28T05:30:31.789Z,6.42
2023-03-28T05:33:00.273Z,6.52
2023-03-28T05:35:28.761Z,6.63
2023-03-28T05:37:55.945Z,6.73
2023-03-28T05:40:25.226Z,6.82
2023-03-28T05:42:52.081Z,6.91
2023-03-28T05:45:21.194Z,7.00
2023-03-28T05:48:17.233Z,7.12
2023-03-28T05:50:47.401Z,7.22
2023-03-28T05:53:16.072Z,7.31
2023-03-28T05:55:43.008Z,7.42
2023-03-28T05:58:10.892Z,7.53
2023-03-28T06:00:39.943Z,7.65
2023-03-28T06:03:16.881Z,7.81
2023-03-28T06:05:45.194Z,7.93
2023-03-28T06:08:21.226Z,8.03
2023-03-28T06:10:48.611Z,8.11
2023-03-28T06:13:19.792Z,8.17
2023-03-28T06:15:48.162Z,8.25
2023-03-28T06:18:18.779Z,8.35
2023-03-28T06:20:48.936Z,8.45
2023-03-28T06:23:17.813Z,8.56
2023-03-28T06:25:44.645Z,8.68
2023-03-28T06:28:14.231Z,8.76
2023-03-28T06:31:04.251Z,8.78
2023-03-28T06:33:31.434Z,8.86
2023-03-28T06:35:58.259Z,8.93
2023-03-28T06:38:28.739Z,8.96
2023-03-28T06:40:56.400Z,9.02
2023-03-28T06:43:23.273Z,9.05
2023-03-28T06:46:13.708Z,9.14
2023-03-28T06:48:44.597Z,9.24
2023-03-28T06:51:23.871Z,9.36
2023-03-28T06:53:50.929Z,9.49
2023-03-28T06:56:23.094Z,9.63
2023-03-28T06:58:49.908Z,9.75
2023-03-28T07:01:22.919Z,9.81
2023-03-28T07:04:08.776Z,9.90
2023-03-28T07:06:37.025Z,10.01
2023-03-28T07:09:06.409Z,10.09
2023-03-28T07:11:51.456Z,10.13
2023-03-28T07:14:19.225Z,10.15
2023-03-28T07:16:46.323Z,10.18
2023-03-28T07:19:13.232Z,10.18
2023-03-28T07:21:42.995Z,10.19
2023-03-28T07:24:13.257Z,10.19
2023-03-28T07:27:14.928Z,10.19
2023-03-28T07:29:43.507Z,10.19
2023-03-28T07:32:11.629Z,10.17
2023-03-28T07:34:38.490Z,10.13
2023-03-28T07:37:08.060Z,10.13
2023-03-28T07:39:57.300Z,10.17
2023-03-28T07:42:28.184Z,10.21
2023-03-28T07:44:55.153Z,10.26
2023-03-28T07:47:22.480Z,10.34
2023-03-28T07:49:52.276Z,10.47
2023-03-28T07:52:20.812Z,10.54
2023-03-28T07:54:47.709Z,10.65
2023-03-28T07:57:14.708Z,10.77
2023-03-28T08:00:02.169Z,10.86
2023-03-28T08:02:30.667Z,10.97
2023-03-28T08:04:57.496Z,11.05
2023-03-28T08:07:27.218Z,11.12
2023-03-28T08:09:56.904Z,11.20
2023-03-28T08:12:27.822Z,11.28
2023-03-28T08:14:55.050Z,11.33
2023-03-28T08:17:23.044Z,11.38
2023-03-28T08:19:51.655Z,11.41
2023-03-28T08:22:38.716Z,11.46
2023-03-28T08:25:41.109Z,11.45
2023-03-28T08:28:08.174Z,11.44
2023-03-28T08:30:35.884Z,11.45
2023-03-28T08:33:04.742Z,11.46
2023-03-28T08:35:33.205Z,11.45
2023-03-28T08:38:04.229Z,11.49
2023-03-28T08:40:31.271Z,11.52
2023-03-28T08:43:15.571Z,11.58
2023-03-28T08:45:51.652Z,11.66
2023-03-28T08:48:23.410Z,11.72
2023-03-28T08:51:02.947Z,11.77
2023-03-28T08:53:41.530Z,11.82
2023-03-28T08:56:08.592Z,11.94
2023-03-28T08:58:40.967Z,12.09
2023-03-28T09:01:10.038Z,12.27
2023-03-28T09:03:37.331Z,12.41
2023-03-28T09:06:16.353Z,12.47
2023-03-28T09:08:43.208Z,12.45
2023-03-28T09:11:33.801Z,12.44
2023-03-28T09:14:06.848Z,12.40
2023-03-28T09:16:53.044Z,12.30
2023-03-28T09:19:40.871Z,12.18
2023-03-28T09:22:52.842Z,12.01
2023-03-28T09:25:22.098Z,11.88
2023-03-28T09:27:56.461Z,11.79
2023-03-28T09:30:27.456Z,11.73
2023-03-28T09:32:58.434Z,11.70
2023-03-28T09:35:26.121Z,11.77
2023-03-28T09:38:13.242Z,11.85
2023-03-28T09:40:42.838Z,11.87
2023-03-28T09:43:25.638Z,11.83
2023-03-28T09:46:39.919Z,11.88
2023-03-28T09:49:29.985Z,11.96
2023-03-28T09:52:14.030Z,12.08
2023-03-28T09:54:41.863Z,12.22
2023-03-28T09:57:08.859Z,12.36
2023-03-28T09:59:57.784Z,12.45
2023-03-28T10:02:32.675Z,12.50
2023-03-28T10:05:28.781Z,12.51
2023-03-28T10:08:02.688Z,12.56
2023-03-28T10:10:47.051Z,12.53
2023-03-28T10:13:18.086Z,12.47
2023-03-28T10:15:50.187Z,12.45
2023-03-28T10:18:53.038Z,12.41
2023-03-28T10:21:40.432Z,12.30
2023-03-28T10:24:16.100Z,12.19
2023-03-28T10:26:49.603Z,12.15
2023-03-28T10:29:16.669Z,12.20
2023-03-28T10:31:48.000Z,12.31
2023-03-28T10:34:30.542Z,12.38
2023-03-28T10:37:24.829Z,12.40
2023-03-28T10:40:32.512Z,12.35
2023-03-28T10:43:16.000Z,12.33
2023-03-28T10:46:21.536Z,12.37
2023-03-28T10:49:17.389Z,12.35
2023-03-28T10:51:52.015Z,12.31
2023-03-28T10:54:22.696Z,12.26
2023-03-28T10:56:57.977Z,12.20
2023-03-28T10:59:28.200Z,12.17
2023-03-28T11:02:02.375Z,12.20
2023-03-28T11:04:45.822Z,12.25
2023-03-28T11:07:18.128Z,12.28
2023-03-28T11:10:08.062Z,12.31
2023-03-28T11:15:27.652Z,12.39
2023-03-28T11:18:00.016Z,12.41
2023-03-28T11:20:28.425Z,12.40
2023-03-28T11:23:06.715Z,12.41
2023-03-28T11:25:54.796Z,12.47
2023-03-28T11:28:47.625Z,12.51
2023-03-28T11:31:22.589Z,12.57
2023-03-28T11:34:15.502Z,12.63
2023-03-28T11:36:55.687Z,12.58
2023-03-28T11:39:37.305Z,12.51
2023-03-28T11:42:09.145Z,12.48
2023-03-28T11:44:48.978Z,12.46
2023-03-28T11:47:25.989Z,12.48
2023-03-28T11:50:08.974Z,12.47
2023-03-28T11:53:05.268Z,12.45
2023-03-28T11:55:42.923Z,12.39
2023-03-28T11:58:24.267Z,12.36
2023-03-28T12:00:58.556Z,12.35
2023-03-28T12:03:37.354Z,12.35
2023-03-28T12:06:11.146Z,12.39
2023-03-28T12:08:38.516Z,12.46
2023-03-28T12:11:07.602Z,12.52
2023-03-28T12:14:08.746Z,12.60
2023-03-28T12:16:44.125Z,12.80
2023-03-28T12:19:14.876Z,13.14
2023-03-28T12:21:51.814Z,13.50
2023-03-28T12:24:40.375Z,13.80
2023-03-28T12:27:28.607Z,14.10
2023-03-28T12:30:07.833Z,14.53
2023-03-28T12:32:55.583Z,15.26
2023-03-28T12:35:37.377Z,16.12
2023-03-28T12:38:29.356Z,16.98
2023-03-28T12:41:14.742Z,17.87
2023-03-28T12:43:52.089Z,18.52
2023-03-28T12:46:35.143Z,19.15
2023-03-28T12:49:04.773Z,19.76
2023-03-28T12:51:38.961Z,20.44
2023-03-28T12:54:07.526Z,21.08
2023-03-28T12:56:34.803Z,21.64
2023-03-28T12:59:24.396Z,22.09
2023-03-28T13:01:53.089Z,22.29
2023-03-28T13:04:23.025Z,22.48
2023-03-28T13:07:19.067Z,22.75
2023-03-28T13:09:49.728Z,23.07
2023-03-28T13:12:35.212Z,23.36
2023-03-28T13:15:06.988Z,23.58
2023-03-28T13:17:37.946Z,23.58
2023-03-28T13:20:10.734Z,23.62
2023-03-28T13:22:37.713Z,23.82
2023-03-28T13:25:21.386Z,24.01
2023-03-28T13:27:49.138Z,24.24
2023-03-28T13:30:16.955Z,24.53
2023-03-28T13:32:49.104Z,24.81
2023-03-28T13:35:36.244Z,24.90
2023-03-28T13:38:22.613Z,25.04
2023-03-28T13:41:00.627Z,25.22
2023-03-28T13:43:48.515Z,25.29
2023-03-28T13:46:18.936Z,25.27
2023-03-28T13:49:04.654Z,25.31
2023-03-28T13:51:54.523Z,25.35
2023-03-28T13:54:21.956Z,25.37
2023-03-28T13:56:49.732Z,25.42
2023-03-28T13:59:18.292Z,25.47
2023-03-28T14:01:47.494Z,25.59
2023-03-28T14:04:31.555Z,25.64
2023-03-28T14:06:59.027Z,25.62
2023-03-28T14:09:28.768Z,25.66
2023-03-28T14:12:01.179Z,25.70
2023-03-28T14:14:38.926Z,25.70
2023-03-28T14:17:07.778Z,25.57
2023-03-28T14:19:40.242Z,25.42
2023-03-28T14:22:14.872Z,25.05
2023-03-28T14:24:42.759Z,24.79
2023-03-28T14:27:13.965Z,24.64
2023-03-28T14:29:57.888Z,24.46
2023-03-28T14:32:26.193Z,24.08
2023-03-28T14:34:55.986Z,23.88
2023-03-28T14:37:22.983Z,23.75
2023-03-28T14:39:51.606Z,23.68
2023-03-28T14:42:20.167Z,23.59
2023-03-28T14:44:50.195Z,23.38
2023-03-28T14:47:21.587Z,23.06
2023-03-28T14:49:48.525Z,22.69
2023-03-28T14:52:16.517Z,22.15
2023-03-28T14:54:47.329Z,21.75
2023-03-28T14:57:15.651Z,21.46
2023-03-28T14:59:46.721Z,21.15
2023-03-28T15:02:35.243Z,20.66
2023-03-28T15:05:03.712Z,20.11
2023-03-28T15:07:33.287Z,19.73
2023-03-28T15:10:23.699Z,19.48
2023-03-28T15:13:10.893Z,19.46
2023-03-28T15:15:42.070Z,19.47
2023-03-28T15:18:14.120Z,19.37
2023-03-28T15:20:43.789Z,19.20
2023-03-28T15:23:28.418Z,19.03
2023-03-28T15:25:56.171Z,18.90
2023-03-28T15:28:27.301Z,18.64
2023-03-28T15:30:56.719Z,18.32
2023-03-28T15:33:25.412Z,17.98
2023-03-28T15:36:27.947Z,17.63
2023-03-28T15:38:59.597Z,17.07
2023-03-28T15:41:42.958Z,16.42
2023-03-28T15:44:16.751Z,15.58
2023-03-28T15:46:46.503Z,14.78
2023-03-28T15:49:16.869Z,14.03
2023-03-28T15:51:49.679Z,13.41
2023-03-28T15:54:28.204Z,12.86
2023-03-28T15:56:59.532Z,12.37
2023-03-28T15:59:39.431Z,11.97
2023-03-28T16:02:24.967Z,11.58
2023-03-28T16:05:14.663Z,11.25
2023-03-28T16:07:48.622Z,10.91
2023-03-28T16:10:17.043Z,10.63
2023-03-28T16:13:04.352Z,10.34
2023-03-28T16:15:40.828Z,10.12
2023-03-28T16:18:20.869Z,9.92
2023-03-28T16:20:53.902Z,9.74
2023-03-28T16:23:21.337Z,9.57
2023-03-28T16:25:48.235Z,9.42
2023-03-28T16:28:17.173Z,9.29
2023-03-28T16:30:44.887Z,9.16
2023-03-28T16:33:11.971Z,9.05
2023-03-28T16:35:39.359Z,8.97
2023-03-28T16:38:07.023Z,8.89
2023-03-28T16:40:34.114Z,8.79
2023-03-28T16:43:01.476Z,8.69
2023-03-28T16:45:29.925Z,8.59
2023-03-28T16:47:57.131Z,8.49
2023-03-28T16:50:23.943Z,8.39
2023-03-28T16:52:51.014Z,8.29
2023-03-28T16:55:18.579Z,8.22
2023-03-28T16:57:45.835Z,8.15
2023-03-28T17:00:18.085Z,8.10
2023-03-28T17:02:46.154Z,8.03
2023-03-28T17:05:13.540Z,7.97
2023-03-28T17:07:40.602Z,7.93
2023-03-28T17:10:08.819Z,7.89
2023-03-28T17:12:36.338Z,7.87
2023-03-28T17:15:03.339Z,7.82
2023-03-28T17:17:30.211Z,7.78
2023-03-28T17:19:57.249Z,7.73
2023-03-28T17:22:25.639Z,7.70
2023-03-28T17:24:52.553Z,7.67
2023-03-28T17:27:21.364Z,7.64
2023-03-28T17:29:48.435Z,7.61
2023-03-28T17:32:15.545Z,7.58
2023-03-28T17:34:43.834Z,7.55
2023-03-28T17:37:13.619Z,7.53
2023-03-28T17:39:41.045Z,7.50
2023-03-28T17:42:09.252Z,7.47
2023-03-28T17:44:36.467Z,7.44
2023-03-28T17:47:05.840Z,7.43
2023-03-28T17:49:32.742Z,7.41
2023-03-28T17:52:01.227Z,7.41
2023-03-28T17:54:28.335Z,7.40
2023-03-28T17:56:55.272Z,7.41
2023-03-28T17:59:22.451Z,7.40
2023-03-28T18:01:49.916Z,7.42
2023-03-28T18:04:17.766Z,7.43
2023-03-28T18:07:15.878Z,7.45
2023-03-28T18:09:45.009Z,7.46
2023-03-28T18:12:12.762Z,7.45
2023-03-28T18:14:39.762Z,7.46
2023-03-28T18:17:06.703Z,7.47
2023-03-28T18:19:33.637Z,7.48
2023-03-28T18:22:03.459Z,7.49
2023-03-28T18:24:30.720Z,7.49
2023-03-28T18:26:59.291Z,7.50
2023-03-28T18:29:26.298Z,7.50
2023-03-28T18:31:53.142Z,7.52
2023-03-28T18:34:22.508Z,7.53
2023-03-28T18:36:53.421Z,7.55
2023-03-28T18:39:23.802Z,7.57
2023-03-28T18:41:54.156Z,7.55
2023-03-28T18:44:25.939Z,7.56
2023-03-28T18:46:55.576Z,7.54
2023-03-28T18:49:22.934Z,7.54
2023-03-28T18:51:49.943Z,7.52
2023-03-28T18:54:17.488Z,7.51
2023-03-28T18:56:45.423Z,7.47
2023-03-28T18:59:12.576Z,7.44
2023-03-28T19:01:42.338Z,7.40
2023-03-28T19:04:12.101Z,7.35
2023-03-28T19:06:39.892Z,7.29
2023-03-28T19:09:06.729Z,7.25
2023-03-28T19:11:33.833Z,7.20
2023-03-28T19:14:00.818Z,7.14
2023-03-28T19:16:27.784Z,7.11
2023-03-28T19:18:54.994Z,7.08
2023-03-28T19:21:21.846Z,7.04
2023-03-28T19:23:49.190Z,7.00
2023-03-28T19:26:16.244Z,6.95
2023-03-28T19:28:43.224Z,6.90
2023-03-28T19:31:11.598Z,6.86
2023-03-28T19:33:41.095Z,6.82
2023-03-28T19:36:08.760Z,6.77
2023-03-28T19:38:36.243Z,6.75
2023-03-28T19:41:06.072Z,6.73
2023-03-28T19:43:34.773Z,6.71
2023-03-28T19:46:05.964Z,6.70
2023-03-28T19:48:33.296Z,6.67
2023-03-28T19:51:02.670Z,6.66
2023-03-28T19:53:29.593Z,6.64
2023-03-28T19:55:59.210Z,6.63
2023-03-28T19:58:27.142Z,6.64
2023-03-28T20:00:54.995Z,6.66
2023-03-28T20:03:21.911Z,6.67
2023-03-28T20:05:48.869Z,6.67
2023-03-28T20:08:17.551Z,6.69
2023-03-28T20:10:49.036Z,6.70
2023-03-28T20:13:16.924Z,6.71
2023-03-28T20:15:44.707Z,6.71
2023-03-28T20:18:15.086Z,6.71
2023-03-28T20:20:43.474Z,6.72
2023-03-28T20:23:11.769Z,6.73
2023-03-28T20:25:38.678Z,6.74
2023-03-28T20:28:05.510Z,6.76
2023-03-28T20:30:34.858Z,6.76
2023-03-28T20:33:02.891Z,6.75
2023-03-28T20:35:29.897Z,6.73
2023-03-28T20:37:59.517Z,6.70
2023-03-28T20:40:26.367Z,6.69
2023-03-28T20:42:53.412Z,6.65
2023-03-28T20:45:23.428Z,6.63
2023-03-28T20:47:58.791Z,6.60
2023-03-28T20:50:26.573Z,6.56
2023-03-28T20:52:53.683Z,6.54
2023-03-28T20:55:20.575Z,6.53
2023-03-28T20:57:48.154Z,6.52
2023-03-28T21:00:17.579Z,6.51
2023-03-28T21:02:45.649Z,6.51
2023-03-28T21:05:12.750Z,6.51
2023-03-28T21:07:39.659Z,6.50
2023-03-28T21:10:07.657Z,6.52
2023-03-28T21:12:34.465Z,6.53
2023-03-28T21:15:01.233Z,6.56
2023-03-28T21:17:29.177Z,6.58
2023-03-28T21:20:01.896Z,6.58
2023-03-28T21:22:30.733Z,6.58
2023-03-28T21:24:58.041Z,6.57
2023-03-28T21:27:25.095Z,6.55
2023-03-28T21:29:51.854Z,6.52
2023-03-28T21:32:19.052Z,6.50
2023-03-28T21:34:46.448Z,6.48
2023-03-28T21:37:13.504Z,6.44
2023-03-28T21:39:40.585Z,6.41
2023-03-28T21:42:07.523Z,6.40
2023-03-28T21:44:34.486Z,6.38
2023-03-28T21:47:01.280Z,6.36
2023-03-28T21:49:30.676Z,6.34
2023-03-28T21:51:57.579Z,6.35
2023-03-28T21:54:24.564Z,6.35
2023-03-28T21:56:51.466Z,6.37
2023-03-28T21:59:18.331Z,6.39
2023-03-28T22:01:45.429Z,6.42
2023-03-28T22:04:12.227Z,6.43
2023-03-28T22:06:39.377Z,6.43
2023-03-28T22:09:06.134Z,6.42
2023-03-28T22:11:35.206Z,6.37
2023-03-28T22:14:02.562Z,6.31
2023-03-28T22:16:30.973Z,6.25
2023-03-28T22:18:57.984Z,6.19
2023-03-28T22:21:25.061Z,6.14
2023-03-28T22:23:54.539Z,6.10
2023-03-28T22:26:21.371Z,6.06
2023-03-28T22:28:49.389Z,6.03
2023-03-28T22:31:17.172Z,5.98
2023-03-28T22:33:44.307Z,5.95
2023-03-28T22:36:11.987Z,5.92
2023-03-28T22:38:39.265Z,5.88
2023-03-28T22:41:06.872Z,5.86
2023-03-28T22:43:34.129Z,5.84
2023-03-28T22:46:01.167Z,5.81
2023-03-28T22:48:30.405Z,5.79
2023-03-28T22:51:00.726Z,5.78
2023-03-28T22:53:28.250Z,5.77
2023-03-28T22:55:55.108Z,5.76
2023-03-28T22:58:22.431Z,5.75
2023-03-28T23:00:49.753Z,5.75
2023-03-28T23:03:16.805Z,5.77
2023-03-28T23:05:43.655Z,5.78
2023-03-28T23:08:10.638Z,5.76
2023-03-28T23:10:37.666Z,5.74
2023-03-28T23:13:04.424Z,5.71
2023-03-28T23:15:31.207Z,5.70
2023-03-28T23:17:58.778Z,5.70
2023-03-28T23:20:26.699Z,5.70
2023-03-28T23:22:56.505Z,5.73
2023-03-28T23:25:23.435Z,5.77
2023-03-28T23:27:50.675Z,5.81
2023-03-28T23:30:17.658Z,5.86
2023-03-28T23:32:44.806Z,5.91
2023-03-28T23:35:12.346Z,5.96
2023-03-28T23:37:39.919Z,6.04
2023-03-28T23:40:14.800Z,6.10
2023-03-28T23:42:44.036Z,6.17
2023-03-28T23:45:12.038Z,6.22
2023-03-28T23:47:38.973Z,6.26
2023-03-28T23:50:06.769Z,6.30
2023-03-28T23:52:33.878Z,6.30
2023-03-28T23:55:01.173Z,6.32
2023-03-28T23:57:29.392Z,6.33
2023-03-28T23:59:56.684Z,6.36
